createdAt,value
2018-11-13T00:00:55.399Z,20.32
2018-11-13T00:01:55.393Z,20.32
2018-11-13T00:02:55.382Z,20.28
2018-11-13T00:03:55.365Z,20.25
2018-11-13T00:04:55.368Z,20.24
2018-11-13T00:05:55.353Z,20.28
2018-11-13T00:06:55.335Z,20.40
2018-11-13T00:07:55.317Z,20.26
2018-11-13T00:08:55.306Z,20.34
2018-11-13T00:09:55.295Z,20.32
2018-11-13T00:10:55.283Z,20.34
2018-11-13T00:11:55.283Z,20.31
2018-11-13T00:12:55.263Z,20.26
2018-11-13T00:13:55.252Z,20.29
2018-11-13T00:14:55.237Z,20.31
2018-11-13T00:15:55.342Z,20.28
2018-11-13T00:16:55.239Z,20.25
2018-11-13T00:17:55.226Z,20.29
2018-11-13T00:18:55.204Z,20.31
2018-11-13T00:19:55.187Z,20.29
2018-11-13T00:20:55.187Z,20.39
2018-11-13T00:21:55.169Z,20.29
2018-11-13T00:22:55.172Z,20.31
2018-11-13T00:23:55.177Z,20.32
2018-11-13T00:24:55.124Z,20.34
2018-11-13T00:25:55.112Z,20.32
2018-11-13T00:26:55.101Z,20.31
2018-11-13T00:27:55.099Z,20.32
2018-11-13T00:28:55.107Z,20.39
2018-11-13T00:29:55.066Z,20.26
2018-11-13T00:30:55.133Z,20.37
2018-11-13T00:31:55.044Z,20.40
2018-11-13T00:32:55.044Z,20.32
2018-11-13T00:33:55.024Z,20.28
2018-11-13T00:34:55.032Z,20.40
2018-11-13T00:35:54.999Z,20.36
2018-11-13T00:36:54.988Z,20.41
2018-11-13T00:37:54.987Z,20.32
2018-11-13T00:38:54.966Z,20.32
2018-11-13T00:39:54.956Z,20.26
2018-11-13T00:40:54.961Z,20.31
2018-11-13T00:41:54.950Z,20.26
2018-11-13T00:42:54.929Z,20.31
2018-11-13T00:43:54.908Z,20.36
2018-11-13T00:44:54.899Z,20.34
2018-11-13T00:45:55.209Z,20.31
2018-11-13T00:46:54.874Z,20.31
2018-11-13T00:47:54.891Z,20.26
2018-11-13T00:48:54.890Z,20.34
2018-11-13T00:49:54.841Z,20.31
2018-11-13T00:50:54.881Z,20.28
2018-11-13T00:51:54.822Z,20.25
2018-11-13T00:52:54.814Z,20.37
2018-11-13T00:53:54.795Z,20.31
2018-11-13T00:54:54.851Z,20.26
2018-11-13T00:55:54.776Z,20.29
2018-11-13T00:56:54.770Z,20.32
2018-11-13T00:57:54.758Z,20.32
2018-11-13T00:58:54.738Z,20.40
2018-11-13T00:59:54.727Z,20.32
2018-11-13T01:00:55.007Z,20.32
2018-11-13T01:01:54.740Z,20.40
2018-11-13T01:02:54.715Z,20.40
2018-11-13T01:03:54.682Z,20.40
2018-11-13T01:04:54.700Z,20.36
2018-11-13T01:05:55.000Z,20.32
2018-11-13T01:06:54.655Z,20.40
2018-11-13T01:07:54.646Z,20.43
2018-11-13T01:08:54.658Z,20.43
2018-11-13T01:09:54.630Z,20.40
2018-11-13T01:10:54.613Z,20.50
2018-11-13T01:11:54.677Z,20.43
2018-11-13T01:12:54.591Z,20.44
2018-11-13T01:13:54.569Z,20.48
2018-11-13T01:14:54.570Z,20.41
2018-11-13T01:15:54.549Z,20.44
2018-11-13T01:16:54.573Z,20.40
2018-11-13T01:17:54.548Z,20.43
2018-11-13T01:18:54.512Z,20.43
2018-11-13T01:19:54.503Z,20.40
2018-11-13T01:20:54.489Z,20.43
2018-11-13T01:21:54.480Z,20.39
2018-11-13T01:22:54.478Z,20.41
2018-11-13T01:23:54.502Z,20.44
2018-11-13T01:24:54.443Z,20.40
2018-11-13T01:25:54.440Z,20.43
2018-11-13T01:26:54.422Z,20.41
2018-11-13T01:27:54.418Z,20.39
2018-11-13T01:28:54.404Z,20.31
2018-11-13T01:29:54.401Z,20.32
2018-11-13T01:30:54.489Z,20.29
2018-11-13T01:31:54.365Z,20.32
2018-11-13T01:32:54.361Z,20.29
2018-11-13T01:33:54.343Z,20.40
2018-11-13T01:34:54.331Z,20.29
2018-11-13T01:35:54.333Z,20.37
2018-11-13T01:36:54.308Z,20.28
2018-11-13T01:37:54.297Z,20.34
2018-11-13T01:38:54.293Z,20.40
2018-11-13T01:39:54.275Z,20.32
2018-11-13T01:40:54.264Z,20.26
2018-11-13T01:41:54.257Z,20.34
2018-11-13T01:42:54.240Z,20.32
2018-11-13T01:43:54.239Z,20.40
2018-11-13T01:44:54.221Z,20.26
2018-11-13T01:45:54.207Z,20.31
2018-11-13T01:46:54.196Z,20.39
2018-11-13T01:47:54.260Z,20.34
2018-11-13T01:48:54.604Z,20.36
2018-11-13T01:49:54.162Z,20.43
2018-11-13T01:50:54.150Z,20.32
2018-11-13T01:51:54.141Z,20.26
2018-11-13T01:52:54.126Z,20.31
2018-11-13T01:53:54.142Z,20.31
2018-11-13T01:54:54.104Z,20.40
2018-11-13T01:55:54.093Z,20.41
2018-11-13T01:56:54.090Z,20.29
2018-11-13T01:57:54.072Z,20.34
2018-11-13T01:58:54.068Z,20.32
2018-11-13T01:59:54.065Z,20.26
2018-11-13T02:00:54.120Z,20.31
2018-11-13T02:01:54.027Z,20.25
2018-11-13T02:02:54.016Z,20.36
2018-11-13T02:03:54.010Z,20.36
2018-11-13T02:04:53.998Z,20.31
2018-11-13T02:05:54.004Z,20.29
2018-11-13T02:06:53.968Z,20.29
2018-11-13T02:07:53.972Z,20.34
2018-11-13T02:08:53.954Z,20.31
2018-11-13T02:09:53.934Z,20.31
2018-11-13T02:10:53.923Z,20.28
2018-11-13T02:11:53.931Z,20.28
2018-11-13T02:12:53.903Z,20.32
2018-11-13T02:13:53.915Z,20.31
2018-11-13T02:14:53.877Z,20.28
2018-11-13T02:15:53.865Z,20.19
2018-11-13T02:16:53.857Z,20.26
2018-11-13T02:17:53.851Z,20.29
2018-11-13T02:18:53.832Z,20.28
2018-11-13T02:19:53.829Z,20.29
2018-11-13T02:20:53.813Z,20.14
2018-11-13T02:21:53.799Z,20.19
2018-11-13T02:22:53.800Z,20.18
2018-11-13T02:23:53.784Z,20.21
2018-11-13T02:24:53.773Z,20.14
2018-11-13T02:25:53.754Z,20.19
2018-11-13T02:26:53.741Z,20.13
2018-11-13T02:27:53.730Z,20.19
2018-11-13T02:28:53.721Z,20.13
2018-11-13T02:29:53.754Z,20.24
2018-11-13T02:30:58.768Z,20.18
2018-11-13T02:31:53.686Z,20.13
2018-11-13T02:32:53.675Z,20.25
2018-11-13T02:33:53.670Z,20.21
2018-11-13T02:34:53.663Z,20.22
2018-11-13T02:35:53.658Z,20.28
2018-11-13T02:36:53.632Z,20.19
2018-11-13T02:37:53.617Z,20.19
2018-11-13T02:38:53.610Z,20.29
2018-11-13T02:39:53.603Z,20.26
2018-11-13T02:40:53.584Z,20.29
2018-11-13T02:41:53.580Z,20.28
2018-11-13T02:42:53.573Z,20.21
2018-11-13T02:43:53.551Z,20.29
2018-11-13T02:44:53.564Z,20.16
2018-11-13T02:45:53.526Z,20.21
2018-11-13T02:46:53.518Z,20.21
2018-11-13T02:47:53.505Z,20.31
2018-11-13T02:48:53.921Z,20.19
2018-11-13T02:49:53.486Z,20.18
2018-11-13T02:50:53.480Z,20.19
2018-11-13T02:51:53.467Z,20.18
2018-11-13T02:52:53.453Z,20.18
2018-11-13T02:53:53.436Z,20.19
2018-11-13T02:54:53.437Z,20.19
2018-11-13T02:55:53.425Z,20.22
2018-11-13T02:56:53.406Z,20.19
2018-11-13T02:57:53.390Z,20.18
2018-11-13T02:58:53.379Z,20.18
2018-11-13T02:59:53.368Z,20.14
2018-11-13T03:00:53.401Z,20.14
2018-11-13T03:01:53.360Z,20.19
2018-11-13T03:02:53.335Z,20.18
2018-11-13T03:03:53.327Z,20.14
2018-11-13T03:04:53.312Z,20.22
2018-11-13T03:05:53.310Z,20.13
2018-11-13T03:06:53.290Z,20.24
2018-11-13T03:07:53.286Z,20.16
2018-11-13T03:08:53.299Z,20.14
2018-11-13T03:09:53.255Z,20.21
2018-11-13T03:10:53.254Z,20.13
2018-11-13T03:11:53.234Z,20.22
2018-11-13T03:12:53.222Z,20.18
2018-11-13T03:13:53.359Z,20.19
2018-11-13T03:14:53.231Z,20.19
2018-11-13T03:15:53.201Z,20.21
2018-11-13T03:16:53.175Z,20.24
2018-11-13T03:17:53.168Z,20.16
2018-11-13T03:18:53.154Z,20.18
2018-11-13T03:19:53.142Z,20.21
2018-11-13T03:20:53.163Z,20.16
2018-11-13T03:21:53.120Z,20.18
2018-11-13T03:22:53.108Z,20.21
2018-11-13T03:23:53.098Z,20.19
2018-11-13T03:24:53.085Z,20.21
2018-11-13T03:25:53.085Z,20.21
2018-11-13T03:26:53.078Z,20.16
2018-11-13T03:27:53.053Z,20.21
2018-11-13T03:28:53.040Z,20.25
2018-11-13T03:29:53.030Z,20.16
2018-11-13T03:30:53.100Z,20.11
2018-11-13T03:31:53.008Z,20.11
2018-11-13T03:32:53.013Z,20.19
2018-11-13T03:33:52.989Z,20.19
2018-11-13T03:34:52.973Z,20.16
2018-11-13T03:35:52.971Z,20.16
2018-11-13T03:36:52.949Z,20.21
2018-11-13T03:37:52.942Z,20.18
2018-11-13T03:38:52.956Z,20.21
2018-11-13T03:39:52.917Z,20.18
2018-11-13T03:40:52.913Z,20.25
2018-11-13T03:41:52.903Z,20.22
2018-11-13T03:42:52.881Z,20.14
2018-11-13T03:43:52.873Z,20.10
2018-11-13T03:44:52.896Z,20.16
2018-11-13T03:45:52.856Z,20.14
2018-11-13T03:46:52.837Z,20.24
2018-11-13T03:47:52.830Z,20.18
2018-11-13T03:48:52.819Z,20.18
2018-11-13T03:49:52.802Z,20.18
2018-11-13T03:50:52.814Z,20.18
2018-11-13T03:51:52.801Z,20.19
2018-11-13T03:52:52.771Z,20.25
2018-11-13T03:53:52.759Z,20.19
2018-11-13T03:54:52.746Z,20.18
2018-11-13T03:55:52.742Z,20.22
2018-11-13T03:56:52.725Z,20.18
2018-11-13T03:57:52.746Z,20.10
2018-11-13T03:58:52.716Z,20.22
2018-11-13T03:59:52.692Z,20.18
2018-11-13T04:00:52.755Z,20.18
2018-11-13T04:01:52.669Z,20.16
2018-11-13T04:02:52.657Z,20.16
2018-11-13T04:03:52.651Z,20.09
2018-11-13T04:04:52.668Z,20.18
2018-11-13T04:05:52.625Z,20.18
2018-11-13T04:06:52.622Z,20.16
2018-11-13T04:07:52.603Z,20.18
2018-11-13T04:08:52.588Z,20.18
2018-11-13T04:09:52.577Z,20.14
2018-11-13T04:10:52.587Z,20.14
2018-11-13T04:11:52.564Z,20.09
2018-11-13T04:12:52.542Z,20.13
2018-11-13T04:13:52.532Z,20.16
2018-11-13T04:14:52.527Z,20.11
2018-11-13T04:15:52.510Z,20.16
2018-11-13T04:16:52.536Z,20.13
2018-11-13T04:17:52.504Z,20.18
2018-11-13T04:18:52.477Z,20.14
2018-11-13T04:19:52.465Z,20.13
2018-11-13T04:20:52.456Z,20.13
2018-11-13T04:21:52.456Z,20.14
2018-11-13T04:22:52.431Z,20.14
2018-11-13T04:23:52.429Z,20.19
2018-11-13T04:24:52.410Z,20.18
2018-11-13T04:25:52.416Z,20.14
2018-11-13T04:26:52.397Z,20.13
2018-11-13T04:27:52.396Z,20.14
2018-11-13T04:28:52.361Z,20.22
2018-11-13T04:29:52.351Z,20.21
2018-11-13T04:30:52.416Z,20.16
2018-11-13T04:31:52.349Z,20.22
2018-11-13T04:32:52.320Z,20.24
2018-11-13T04:33:52.334Z,20.16
2018-11-13T04:34:52.293Z,20.21
2018-11-13T04:35:52.283Z,20.18
2018-11-13T04:36:52.291Z,20.18
2018-11-13T04:37:52.261Z,20.13
2018-11-13T04:38:52.254Z,20.22
2018-11-13T04:39:52.246Z,20.19
2018-11-13T04:40:52.225Z,20.21
2018-11-13T04:41:52.213Z,20.16
2018-11-13T04:42:52.212Z,20.18
2018-11-13T04:43:52.194Z,20.22
2018-11-13T04:44:52.180Z,20.19
2018-11-13T04:45:52.180Z,20.21
2018-11-13T04:46:52.171Z,20.25
2018-11-13T04:47:52.157Z,20.18
2018-11-13T04:48:52.135Z,20.11
2018-11-13T04:49:52.125Z,20.16
2018-11-13T04:50:52.113Z,20.16
2018-11-13T04:51:52.104Z,20.19
2018-11-13T04:52:52.116Z,20.22
2018-11-13T04:53:52.081Z,20.25
2018-11-13T04:54:52.072Z,20.16
2018-11-13T04:55:52.058Z,20.21
2018-11-13T04:56:52.049Z,20.14
2018-11-13T04:57:52.044Z,20.19
2018-11-13T04:58:52.039Z,20.18
2018-11-13T04:59:52.011Z,20.19
2018-11-13T05:00:52.020Z,20.21
2018-11-13T05:01:51.992Z,20.16
2018-11-13T05:02:52.060Z,20.10
2018-11-13T05:03:51.972Z,20.25
2018-11-13T05:04:51.967Z,20.16
2018-11-13T05:05:51.946Z,20.18
2018-11-13T05:06:51.933Z,20.22
2018-11-13T05:07:51.933Z,20.18
2018-11-13T05:08:51.914Z,20.29
2018-11-13T05:09:51.906Z,20.31
2018-11-13T05:10:51.901Z,20.26
2018-11-13T05:11:51.877Z,20.26
2018-11-13T05:12:51.876Z,20.31
2018-11-13T05:13:51.854Z,20.31
2018-11-13T05:14:51.841Z,20.32
2018-11-13T05:15:51.829Z,20.36
2018-11-13T05:16:51.829Z,20.32
2018-11-13T05:17:51.815Z,20.31
2018-11-13T05:18:51.803Z,20.26
2018-11-13T05:19:51.785Z,20.37
2018-11-13T05:20:51.774Z,20.34
2018-11-13T05:21:51.780Z,20.31
2018-11-13T05:22:51.810Z,20.31
2018-11-13T05:23:51.739Z,20.28
2018-11-13T05:24:51.730Z,20.31
2018-11-13T05:25:51.727Z,20.28
2018-11-13T05:26:51.706Z,20.28
2018-11-13T05:27:51.696Z,20.43
2018-11-13T05:28:51.718Z,20.25
2018-11-13T05:29:51.695Z,20.34
2018-11-13T05:30:56.272Z,20.26
2018-11-13T05:31:51.648Z,20.28
2018-11-13T05:32:51.637Z,20.39
2018-11-13T05:33:51.636Z,20.28
2018-11-13T05:34:51.616Z,20.28
2018-11-13T05:35:51.611Z,20.37
2018-11-13T05:36:51.630Z,20.32
2018-11-13T05:37:51.584Z,20.26
2018-11-13T05:38:51.579Z,20.36
2018-11-13T05:39:51.560Z,20.34
2018-11-13T05:40:51.549Z,20.37
2018-11-13T05:41:51.631Z,20.32
2018-11-13T05:42:51.529Z,20.39
2018-11-13T05:43:51.523Z,20.31
2018-11-13T05:44:51.501Z,20.31
2018-11-13T05:45:51.498Z,20.28
2018-11-13T05:46:51.485Z,20.39
2018-11-13T05:47:51.473Z,20.40
2018-11-13T05:48:51.465Z,20.28
2018-11-13T05:49:51.470Z,20.34
2018-11-13T05:50:51.436Z,20.28
2018-11-13T05:51:51.426Z,20.32
2018-11-13T05:52:51.427Z,20.47
2018-11-13T05:53:51.409Z,20.37
2018-11-13T05:54:51.389Z,20.39
2018-11-13T05:55:51.380Z,20.41
2018-11-13T05:56:51.373Z,20.40
2018-11-13T05:57:51.362Z,20.28
2018-11-13T05:58:51.355Z,20.34
2018-11-13T05:59:51.359Z,20.37
2018-11-13T06:00:51.390Z,20.41
2018-11-13T06:01:51.309Z,20.31
2018-11-13T06:02:51.298Z,20.29
2018-11-13T06:03:51.312Z,20.31
2018-11-13T06:04:51.276Z,20.36
2018-11-13T06:05:51.267Z,20.43
2018-11-13T06:06:51.253Z,20.31
2018-11-13T06:07:51.242Z,20.40
2018-11-13T06:08:51.250Z,20.29
2018-11-13T06:09:51.237Z,20.40
2018-11-13T06:10:51.221Z,20.41
2018-11-13T06:11:51.207Z,20.40
2018-11-13T06:12:51.200Z,20.43
2018-11-13T06:13:51.193Z,20.43
2018-11-13T06:14:51.177Z,20.44
2018-11-13T06:15:51.156Z,20.48
2018-11-13T06:16:51.142Z,20.44
2018-11-13T06:17:51.130Z,20.51
2018-11-13T06:18:51.137Z,20.51
2018-11-13T06:19:51.120Z,20.40
2018-11-13T06:20:51.109Z,20.40
2018-11-13T06:21:51.083Z,20.48
2018-11-13T06:22:51.082Z,20.39
2018-11-13T06:23:51.061Z,20.41
2018-11-13T06:24:51.063Z,20.40
2018-11-13T06:25:51.052Z,20.41
2018-11-13T06:26:51.032Z,20.28
2018-11-13T06:27:51.016Z,20.37
2018-11-13T06:28:51.007Z,20.37
2018-11-13T06:29:51.003Z,20.29
2018-11-13T06:30:51.022Z,20.32
2018-11-13T06:31:50.989Z,20.29
2018-11-13T06:32:51.001Z,20.29
2018-11-13T06:33:50.947Z,20.37
2018-11-13T06:34:50.947Z,20.26
2018-11-13T06:35:50.926Z,20.26
2018-11-13T06:36:50.914Z,20.29
2018-11-13T06:37:50.906Z,20.29
2018-11-13T06:38:50.994Z,20.29
2018-11-13T06:39:50.896Z,20.26
2018-11-13T06:40:50.871Z,20.28
2018-11-13T06:41:50.856Z,20.28
2018-11-13T06:42:50.846Z,20.32
2018-11-13T06:43:50.833Z,20.29
2018-11-13T06:44:50.834Z,20.32
2018-11-13T06:45:50.828Z,20.32
2018-11-13T06:46:50.799Z,20.32
2018-11-13T06:47:50.791Z,20.31
2018-11-13T06:48:50.801Z,20.31
2018-11-13T06:49:50.779Z,20.29
2018-11-13T06:50:50.755Z,20.32
2018-11-13T06:51:50.766Z,20.28
2018-11-13T06:52:50.750Z,20.36
2018-11-13T06:53:50.729Z,20.29
2018-11-13T06:54:50.735Z,20.29
2018-11-13T06:55:50.702Z,20.28
2018-11-13T06:56:50.699Z,20.31
2018-11-13T06:57:50.696Z,20.25
2018-11-13T06:58:50.687Z,20.28
2018-11-13T06:59:50.678Z,20.29
2018-11-13T07:00:50.660Z,20.26
2018-11-13T07:01:50.641Z,20.24
2018-11-13T07:02:50.634Z,20.25
2018-11-13T07:03:50.615Z,20.25
2018-11-13T07:04:50.655Z,20.29
2018-11-13T07:05:50.606Z,20.28
2018-11-13T07:06:50.573Z,20.26
2018-11-13T07:07:50.564Z,20.26
2018-11-13T07:08:50.578Z,20.28
2018-11-13T07:09:50.539Z,20.29
2018-11-13T07:10:50.616Z,20.28
2018-11-13T07:11:50.549Z,20.39
2018-11-13T07:12:50.508Z,20.39
2018-11-13T07:13:50.507Z,20.29
2018-11-13T07:14:50.486Z,20.36
2018-11-13T07:15:50.479Z,20.39
2018-11-13T07:16:50.463Z,20.40
2018-11-13T07:17:50.480Z,20.29
2018-11-13T07:18:50.449Z,20.34
2018-11-13T07:19:50.428Z,20.39
2018-11-13T07:20:50.426Z,20.29
2018-11-13T07:21:50.407Z,20.34
2018-11-13T07:22:50.396Z,20.32
2018-11-13T07:23:50.405Z,20.37
2018-11-13T07:24:50.373Z,20.31
2018-11-13T07:25:50.367Z,20.34
2018-11-13T07:26:50.381Z,20.34
2018-11-13T07:27:50.429Z,20.43
2018-11-13T07:28:50.328Z,20.41
2018-11-13T07:29:50.333Z,20.43
2018-11-13T07:30:50.393Z,20.39
2018-11-13T07:31:50.383Z,20.47
2018-11-13T07:32:50.288Z,20.51
2018-11-13T07:33:53.256Z,20.47
2018-11-13T07:34:50.259Z,20.59
2018-11-13T07:35:50.309Z,20.60
2018-11-13T07:36:50.236Z,20.65
2018-11-13T07:37:50.224Z,20.67
2018-11-13T07:38:50.228Z,20.66
2018-11-13T07:39:50.210Z,20.72
2018-11-13T07:40:50.256Z,20.67
2018-11-13T07:41:50.179Z,20.72
2018-11-13T07:42:50.166Z,20.74
2018-11-13T07:43:50.176Z,20.77
2018-11-13T07:44:50.154Z,20.72
2018-11-13T07:45:50.144Z,20.69
2018-11-13T07:46:50.149Z,20.75
2018-11-13T07:47:50.297Z,20.84
2018-11-13T07:48:50.101Z,20.84
2018-11-13T07:49:50.086Z,20.82
2018-11-13T07:50:50.106Z,20.85
2018-11-13T07:51:50.076Z,20.85
2018-11-13T07:52:50.082Z,20.92
2018-11-13T07:53:50.092Z,20.84
2018-11-13T07:54:50.030Z,20.82
2018-11-13T07:55:50.027Z,20.87
2018-11-13T07:56:50.007Z,20.99
2018-11-13T07:57:50.019Z,20.99
2018-11-13T07:58:49.988Z,21.00
2018-11-13T07:59:49.986Z,20.99
2018-11-13T08:00:49.998Z,20.97
2018-11-13T08:01:49.951Z,20.99
2018-11-13T08:02:49.943Z,20.95
2018-11-13T08:03:49.929Z,21.02
2018-11-13T08:04:49.924Z,21.11
2018-11-13T08:05:49.978Z,21.22
2018-11-13T08:06:49.967Z,21.27
2018-11-13T08:07:49.883Z,21.24
2018-11-13T08:08:49.871Z,21.32
2018-11-13T08:09:49.867Z,21.42
2018-11-13T08:10:49.848Z,21.61
2018-11-13T08:11:49.870Z,21.67
2018-11-13T08:12:49.960Z,21.66
2018-11-13T08:13:49.817Z,21.79
2018-11-13T08:14:49.811Z,21.72
2018-11-13T08:15:49.800Z,21.72
2018-11-13T08:16:49.784Z,21.62
2018-11-13T08:17:49.787Z,21.64
2018-11-13T08:18:49.770Z,21.52
2018-11-13T08:19:49.749Z,21.46
2018-11-13T08:20:49.741Z,21.54
2018-11-13T08:21:49.806Z,21.55
2018-11-13T08:22:49.717Z,21.54
2018-11-13T08:23:49.730Z,21.52
2018-11-13T08:24:49.699Z,21.57
2018-11-13T08:25:49.710Z,21.48
2018-11-13T08:26:49.691Z,21.48
2018-11-13T08:27:49.660Z,21.54
2018-11-13T08:28:49.710Z,21.57
2018-11-13T08:29:49.678Z,21.51
2018-11-13T08:30:49.775Z,21.58
2018-11-13T08:31:49.633Z,21.60
2018-11-13T08:32:49.609Z,21.57
2018-11-13T08:33:49.593Z,21.61
2018-11-13T08:34:49.587Z,21.61
2018-11-13T08:35:49.576Z,21.58
2018-11-13T08:36:49.577Z,21.66
2018-11-13T08:37:49.547Z,21.64
2018-11-13T08:38:49.535Z,21.60
2018-11-13T08:39:49.521Z,21.72
2018-11-13T08:40:49.533Z,21.66
2018-11-13T08:41:49.500Z,21.83
2018-11-13T08:42:49.496Z,21.79
2018-11-13T08:43:49.521Z,21.82
2018-11-13T08:44:49.486Z,21.93
2018-11-13T08:45:49.460Z,21.88
2018-11-13T08:46:49.444Z,21.98
2018-11-13T08:47:49.432Z,21.92
2018-11-13T08:48:49.428Z,22.04
2018-11-13T08:49:49.410Z,21.96
2018-11-13T08:50:49.466Z,22.00
2018-11-13T08:51:49.387Z,22.04
2018-11-13T08:52:49.376Z,22.02
2018-11-13T08:53:49.390Z,22.02
2018-11-13T08:54:49.355Z,22.02
2018-11-13T08:55:49.352Z,21.93
2018-11-13T08:56:49.358Z,22.07
2018-11-13T08:57:49.337Z,22.06
2018-11-13T08:58:49.398Z,22.07
2018-11-13T08:59:49.336Z,22.10
2018-11-13T09:00:49.301Z,22.44
2018-11-13T09:01:49.278Z,22.36
2018-11-13T09:02:49.286Z,22.28
2018-11-13T09:03:49.256Z,22.22
2018-11-13T09:04:49.309Z,22.11
2018-11-13T09:05:49.229Z,22.45
2018-11-13T09:06:49.218Z,23.02
2018-11-13T09:07:49.316Z,23.23
2018-11-13T09:08:49.206Z,23.99
2018-11-13T09:09:49.215Z,24.43
2018-11-13T09:10:49.181Z,25.11
2018-11-13T09:11:49.292Z,25.41
2018-11-13T09:12:49.150Z,25.99
2018-11-13T09:13:49.143Z,26.43
2018-11-13T09:14:49.133Z,26.96
2018-11-13T09:15:49.151Z,27.52
2018-11-13T09:16:49.144Z,27.85
2018-11-13T09:17:49.095Z,28.20
2018-11-13T09:18:49.155Z,28.49
2018-11-13T09:19:49.073Z,28.79
2018-11-13T09:20:49.069Z,29.07
2018-11-13T09:21:49.141Z,29.26
2018-11-13T09:22:49.132Z,29.32
2018-11-13T09:23:49.033Z,29.10
2018-11-13T09:24:49.019Z,28.04
2018-11-13T09:25:49.005Z,27.93
2018-11-13T09:26:48.995Z,28.57
2018-11-13T09:27:48.987Z,28.85
2018-11-13T09:28:48.990Z,28.45
2018-11-13T09:29:49.040Z,27.89
2018-11-13T09:30:49.217Z,27.22
2018-11-13T09:31:49.036Z,26.78
2018-11-13T09:32:48.990Z,26.90
2018-11-13T09:33:48.915Z,27.95
2018-11-13T09:34:48.918Z,28.15
2018-11-13T09:35:48.918Z,27.60
2018-11-13T09:36:48.889Z,27.21
2018-11-13T09:37:48.872Z,26.68
2018-11-13T09:38:48.872Z,26.36
2018-11-13T09:39:48.854Z,26.05
2018-11-13T09:40:48.853Z,25.81
2018-11-13T09:41:48.844Z,25.58
2018-11-13T09:42:48.842Z,25.36
2018-11-13T09:43:48.806Z,25.18
2018-11-13T09:44:48.847Z,25.04
2018-11-13T09:45:48.827Z,24.99
2018-11-13T09:46:48.768Z,24.92
2018-11-13T09:47:48.854Z,24.89
2018-11-13T09:48:48.761Z,24.86
2018-11-13T09:49:48.735Z,24.95
2018-11-13T09:50:48.860Z,24.98
2018-11-13T09:51:48.720Z,25.11
2018-11-13T09:52:48.701Z,25.53
2018-11-13T09:53:48.819Z,25.53
2018-11-13T09:54:48.693Z,26.47
2018-11-13T09:55:48.680Z,27.08
2018-11-13T09:56:48.663Z,27.51
2018-11-13T09:57:48.647Z,27.32
2018-11-13T09:58:48.637Z,26.83
2018-11-13T09:59:48.634Z,26.62
2018-11-13T10:00:48.870Z,27.07
2018-11-13T10:01:49.254Z,27.71
2018-11-13T10:02:49.226Z,28.30
2018-11-13T10:03:49.170Z,28.59
2018-11-13T10:04:49.212Z,28.37
2018-11-13T10:05:48.651Z,27.98
2018-11-13T10:06:48.597Z,28.01
2018-11-13T10:07:48.531Z,27.49
2018-11-13T10:08:48.519Z,28.19
2018-11-13T10:09:48.525Z,28.54
2018-11-13T10:10:48.615Z,28.81
2018-11-13T10:11:48.494Z,28.64
2018-11-13T10:12:48.483Z,28.69
2018-11-13T10:13:48.483Z,28.04
2018-11-13T10:14:48.491Z,27.55
2018-11-13T10:15:48.444Z,27.51
2018-11-13T10:16:48.457Z,27.25
2018-11-13T10:17:48.576Z,26.89
2018-11-13T10:18:48.436Z,26.68
2018-11-13T10:19:48.407Z,26.58
2018-11-13T10:20:48.387Z,26.59
2018-11-13T10:21:48.387Z,27.89
2018-11-13T10:22:48.367Z,27.47
2018-11-13T10:23:48.358Z,27.20
2018-11-13T10:24:48.341Z,27.51
2018-11-13T10:25:48.338Z,27.17
2018-11-13T10:26:48.337Z,26.81
2018-11-13T10:27:48.386Z,27.10
2018-11-13T10:28:48.297Z,26.78
2018-11-13T10:29:48.315Z,26.66
2018-11-13T10:30:48.368Z,27.35
2018-11-13T10:31:48.279Z,27.22
2018-11-13T10:32:48.285Z,27.21
2018-11-13T10:33:48.256Z,26.66
2018-11-13T10:34:48.249Z,26.33
2018-11-13T10:35:48.233Z,26.02
2018-11-13T10:36:48.234Z,26.00
2018-11-13T10:37:48.218Z,25.78
2018-11-13T10:38:48.204Z,25.62
2018-11-13T10:39:48.206Z,25.41
2018-11-13T10:40:48.278Z,25.35
2018-11-13T10:41:48.162Z,25.28
2018-11-13T10:42:48.155Z,25.88
2018-11-13T10:43:48.142Z,27.02
2018-11-13T10:44:48.138Z,27.55
2018-11-13T10:45:48.107Z,27.18
2018-11-13T10:46:48.131Z,28.10
2018-11-13T10:47:48.084Z,27.73
2018-11-13T10:48:48.164Z,28.05
2018-11-13T10:49:48.068Z,27.83
2018-11-13T10:50:48.055Z,27.64
2018-11-13T10:51:48.065Z,28.39
2018-11-13T10:52:48.043Z,29.14
2018-11-13T10:53:48.039Z,29.65
2018-11-13T10:54:48.027Z,30.06
2018-11-13T10:55:48.009Z,29.57
2018-11-13T10:56:48.000Z,28.70
2018-11-13T10:57:47.980Z,28.20
2018-11-13T10:58:47.977Z,28.88
2018-11-13T10:59:47.967Z,28.56
2018-11-13T11:00:47.999Z,29.12
2018-11-13T11:01:47.928Z,29.56
2018-11-13T11:02:48.024Z,29.82
2018-11-13T11:03:47.928Z,30.13
2018-11-13T11:04:47.908Z,30.15
2018-11-13T11:05:47.897Z,29.14
2018-11-13T11:06:47.928Z,28.63
2018-11-13T11:07:47.863Z,28.44
2018-11-13T11:08:47.874Z,28.00
2018-11-13T11:09:47.838Z,27.90
2018-11-13T11:10:47.843Z,28.42
2018-11-13T11:11:47.837Z,29.38
2018-11-13T11:12:47.840Z,29.90
2018-11-13T11:13:47.987Z,29.90
2018-11-13T11:14:47.785Z,29.32
2018-11-13T11:15:47.777Z,29.88
2018-11-13T11:16:47.765Z,30.47
2018-11-13T11:17:47.780Z,29.35
2018-11-13T11:18:47.751Z,29.86
2018-11-13T11:19:47.773Z,29.76
2018-11-13T11:20:47.716Z,30.37
2018-11-13T11:21:47.705Z,30.78
2018-11-13T11:22:47.786Z,30.16
2018-11-13T11:23:47.956Z,29.66
2018-11-13T11:24:47.693Z,30.10
2018-11-13T11:25:47.663Z,30.61
2018-11-13T11:26:47.651Z,29.54
2018-11-13T11:27:47.683Z,29.36
2018-11-13T11:28:47.628Z,29.91
2018-11-13T11:29:47.616Z,30.12
2018-11-13T11:30:47.642Z,30.34
2018-11-13T11:31:47.613Z,30.57
2018-11-13T11:32:47.600Z,30.34
2018-11-13T11:33:47.585Z,30.88
2018-11-13T11:34:47.590Z,30.87
2018-11-13T11:35:47.554Z,30.66
2018-11-13T11:36:47.553Z,31.03
2018-11-13T11:37:47.545Z,30.28
2018-11-13T11:38:47.661Z,30.08
2018-11-13T11:39:47.520Z,29.88
2018-11-13T11:40:47.497Z,30.05
2018-11-13T11:41:47.496Z,30.68
2018-11-13T11:42:47.482Z,31.14
2018-11-13T11:43:47.460Z,31.03
2018-11-13T11:44:47.467Z,30.69
2018-11-13T11:45:47.451Z,31.18
2018-11-13T11:46:47.445Z,31.44
2018-11-13T11:47:47.427Z,31.74
2018-11-13T11:48:47.417Z,31.90
2018-11-13T11:49:47.422Z,32.18
2018-11-13T11:50:47.395Z,32.36
2018-11-13T11:51:47.385Z,32.36
2018-11-13T11:52:47.391Z,32.40
2018-11-13T11:53:47.397Z,32.49
2018-11-13T11:54:47.369Z,32.58
2018-11-13T11:55:47.337Z,32.70
2018-11-13T11:56:47.317Z,32.71
2018-11-13T11:57:47.322Z,32.74
2018-11-13T11:58:47.304Z,32.73
2018-11-13T11:59:47.293Z,32.85
2018-11-13T12:00:47.439Z,32.82
2018-11-13T12:01:47.267Z,32.85
2018-11-13T12:02:47.271Z,32.80
2018-11-13T12:03:47.247Z,32.89
2018-11-13T12:04:47.280Z,32.89
2018-11-13T12:05:47.230Z,32.93
2018-11-13T12:06:47.205Z,32.96
2018-11-13T12:07:47.229Z,33.00
2018-11-13T12:08:47.199Z,33.01
2018-11-13T12:09:47.190Z,32.97
2018-11-13T12:10:47.207Z,33.02
2018-11-13T12:11:47.181Z,33.04
2018-11-13T12:12:47.154Z,33.01
2018-11-13T12:13:47.142Z,33.08
2018-11-13T12:14:47.143Z,33.27
2018-11-13T12:15:47.130Z,33.23
2018-11-13T12:16:47.107Z,33.14
2018-11-13T12:17:47.088Z,33.22
2018-11-13T12:18:47.151Z,33.24
2018-11-13T12:19:47.080Z,33.19
2018-11-13T12:20:47.062Z,33.24
2018-11-13T12:21:47.052Z,33.23
2018-11-13T12:22:47.059Z,33.27
2018-11-13T12:23:47.035Z,33.27
2018-11-13T12:24:47.026Z,33.30
2018-11-13T12:25:47.018Z,33.34
2018-11-13T12:26:46.997Z,33.27
2018-11-13T12:27:46.988Z,33.28
2018-11-13T12:28:46.981Z,33.23
2018-11-13T12:29:46.963Z,33.23
2018-11-13T12:30:47.010Z,33.17
2018-11-13T12:31:46.957Z,33.09
2018-11-13T12:32:46.946Z,32.73
2018-11-13T12:33:46.911Z,32.53
2018-11-13T12:34:47.033Z,32.14
2018-11-13T12:35:46.910Z,31.36
2018-11-13T12:36:46.887Z,31.09
2018-11-13T12:37:46.889Z,30.61
2018-11-13T12:38:46.875Z,29.86
2018-11-13T12:39:46.858Z,29.36
2018-11-13T12:40:46.858Z,29.14
2018-11-13T12:41:46.866Z,28.66
2018-11-13T12:42:46.833Z,28.30
2018-11-13T12:43:46.817Z,28.01
2018-11-13T12:44:46.810Z,27.73
2018-11-13T12:45:46.788Z,27.67
2018-11-13T12:46:46.774Z,27.58
2018-11-13T12:47:46.774Z,27.54
2018-11-13T12:48:46.778Z,28.30
2018-11-13T12:49:46.752Z,29.31
2018-11-13T12:50:46.728Z,29.05
2018-11-13T12:51:46.730Z,28.79
2018-11-13T12:52:46.720Z,28.52